Terminal Aerodrome Forecast
Issued by NWS

Home | Current Version | Previous Version | Graphics & Text | Print | Product List | Glossary On
Versions: 1 2 3 4 5 6 7 8 9 10 11 12 13 14 15 16 17 18 19 20
000
FTUS43 KBIS 170700 AAA
TAFDIK
TAF AMD
KDIK 170700Z 1707/1806 26005KT P6SM FEW015
     FM170900 26005KT 2SM BR FEW025
     FM171200 23004KT 5SM BR FEW045
     FM171400 20005KT P6SM FEW150
     FM180000 16008KT P6SM SCT200=

USA.gov is the U.S. government's official web portal to all federal, state and local government web resources and services.